Time;durP1;ratioP1;P1;durP2;ratioP2;P2;SDS_P1;SDS_P2;PMS_P1;PMS_P2;Temp;Humidity;BMP_temperature;BMP_pressure;BME280_temperature;BME280_humidity;BME280_pressure;Samples;Min_cycle;Max_cycle;Signal;HPM_P1;HPM_P2
2022/08/19 00:01:49;;;;;;;5.55;3.17;;;16.60;99.90;;;;;;5019169;28;20045;-77
2022/08/19 00:04:17;;;;;;;4.78;3.25;;;16.60;99.90;;;;;;5020489;28;20018;-78
2022/08/19 00:06:44;;;;;;;5.68;3.40;;;16.60;99.90;;;;;;5000959;28;20026;-76
2022/08/19 00:09:12;;;;;;;4.90;3.38;;;16.60;99.90;;;;;;5018044;28;20573;-78
2022/08/19 00:11:39;;;;;;;6.65;3.75;;;16.70;99.90;;;;;;5019536;28;20076;-78
2022/08/19 00:17:26;;;;;;;7.35;3.65;;;16.80;99.90;;;;;;5016029;28;20075;-78
2022/08/19 00:19:52;;;;;;;5.60;3.47;;;16.80;99.90;;;;;;5000411;28;20093;-76
2022/08/19 00:22:18;;;;;;;5.90;3.50;;;16.80;99.90;;;;;;5017201;28;20042;-78
2022/08/19 00:24:45;;;;;;;5.47;3.60;;;16.70;99.90;;;;;;4999227;28;20037;-78
2022/08/19 00:27:11;;;;;;;5.93;3.80;;;16.70;99.90;;;;;;5019590;28;20398;-78
2022/08/19 00:29:37;;;;;;;8.13;3.55;;;16.70;99.90;;;;;;5019181;28;20026;-78
2022/08/19 00:32:04;;;;;;;7.63;4.20;;;16.50;99.90;;;;;;5018179;28;20457;-74
2022/08/19 00:34:30;;;;;;;8.38;3.85;;;16.50;99.90;;;;;;5043387;22;20489;-75
2022/08/19 00:36:56;;;;;;;5.85;3.45;;;16.40;99.90;;;;;;5016059;28;20026;-75
2022/08/19 00:39:22;;;;;;;7.43;3.58;;;16.40;99.90;;;;;;5015905;28;20033;-75
2022/08/19 00:41:49;;;;;;;6.43;3.72;;;16.40;99.90;;;;;;5015853;28;20034;-75
2022/08/19 00:44:19;;;;;;;11.95;3.58;;;16.40;99.90;;;;;;5015930;28;20496;-75
2022/08/19 00:46:47;;;;;;;10.60;4.38;;;16.40;99.90;;;;;;5016198;28;20101;-75
2022/08/19 00:49:22;;;;;;;7.25;4.35;;;16.50;99.90;;;;;;5015841;28;20033;-75
2022/08/19 00:51:53;;;;;;;6.80;4.25;;;16.50;99.90;;;;;;5015708;28;20101;-76
2022/08/19 00:54:20;;;;;;;5.90;4.30;;;16.50;99.90;;;;;;5016087;28;20432;-75
2022/08/19 00:56:47;;;;;;;6.10;4.13;;;16.50;99.90;;;;;;5014401;28;20030;-76
2022/08/19 00:59:14;;;;;;;8.68;4.18;;;16.50;99.90;;;;;;5015618;28;20033;-75
2022/08/19 01:01:42;;;;;;;5.80;3.63;;;16.40;99.90;;;;;;5015553;28;20026;-76
2022/08/19 01:04:08;;;;;;;5.53;3.85;;;16.40;99.90;;;;;;5014395;28;20030;-75
2022/08/19 01:06:37;;;;;;;6.40;3.45;;;16.40;99.90;;;;;;5015344;28;20501;-75
2022/08/19 01:09:04;;;;;;;5.10;3.95;;;16.40;99.90;;;;;;5015260;28;20474;-75
2022/08/19 01:11:34;;;;;;;5.45;3.88;;;16.30;99.90;;;;;;5014508;28;20500;-75
2022/08/19 01:13:59;;;;;;;6.65;4.05;;;16.20;99.90;;;;;;5015087;28;20026;-75
2022/08/19 01:16:28;;;;;;;5.13;3.30;;;16.20;99.90;;;;;;5014330;28;20105;-75
2022/08/19 01:18:54;;;;;;;7.18;3.88;;;16.20;99.90;;;;;;5015074;28;20096;-75
2022/08/19 01:21:28;;;;;;;6.28;3.72;;;16.20;99.90;;;;;;4997565;28;20490;-74
2022/08/19 01:23:54;;;;;;;8.07;4.25;;;16.20;99.90;;;;;;5015139;28;20044;-75
2022/08/19 01:26:23;;;;;;;6.05;3.70;;;16.30;99.90;;;;;;5014005;28;20537;-76
2022/08/19 01:28:52;;;;;;;6.30;3.53;;;16.30;99.90;;;;;;4997347;28;20117;-76
2022/08/19 01:31:23;;;;;;;4.70;3.35;;;16.30;99.90;;;;;;5014727;28;20374;-75
2022/08/19 01:33:52;;;;;;;4.97;3.55;;;16.40;99.90;;;;;;5014838;28;20475;-75
2022/08/19 01:36:38;;;;;;;5.97;3.40;;;16.40;99.90;;;;;;5013334;28;20069;-74
2022/08/19 01:39:07;;;;;;;4.60;3.58;;;16.40;99.90;;;;;;5012787;28;20080;-75
2022/08/19 01:41:33;;;;;;;5.35;3.42;;;16.40;99.90;;;;;;5012676;28;20021;-75
2022/08/19 01:44:03;;;;;;;5.38;3.10;;;16.40;99.90;;;;;;5012759;28;20030;-75
2022/08/19 01:46:29;;;;;;;4.85;3.35;;;16.40;99.90;;;;;;4996187;28;20030;-75
2022/08/19 01:48:54;;;;;;;4.75;3.70;;;16.40;99.90;;;;;;5015274;28;20026;-75
2022/08/19 01:51:20;;;;;;;5.30;3.47;;;16.30;99.90;;;;;;5013922;28;20037;-75
2022/08/19 01:53:51;;;;;;;5.78;3.40;;;16.40;99.90;;;;;;5014638;28;20041;-74
2022/08/19 01:56:17;;;;;;;5.97;3.20;;;16.40;99.90;;;;;;5014886;28;20378;-76
2022/08/19 01:58:58;;;;;;;7.50;3.45;;;16.40;99.90;;;;;;5014549;28;20026;-76
2022/08/19 02:01:24;;;;;;;5.80;3.95;;;16.50;99.90;;;;;;5014660;28;20044;-75
2022/08/19 02:03:51;;;;;;;6.90;3.80;;;16.40;99.90;;;;;;4997341;28;20490;-76
2022/08/19 02:06:17;;;;;;;5.40;3.60;;;16.40;99.90;;;;;;5014712;28;20026;-76
2022/08/19 02:08:45;;;;;;;5.00;3.35;;;16.40;99.90;;;;;;5014415;28;20524;-73
2022/08/19 02:11:22;;;;;;;5.15;3.88;;;16.40;99.90;;;;;;5014304;28;20054;-73
2022/08/19 02:13:49;;;;;;;8.88;4.95;;;16.40;99.90;;;;;;4996726;28;20037;-73
2022/08/19 02:16:16;;;;;;;6.53;4.68;;;16.40;99.90;;;;;;5014250;28;20083;-73
2022/08/19 02:18:42;;;;;;;6.97;4.55;;;16.40;99.90;;;;;;5014466;28;20041;-73
2022/08/19 02:21:07;;;;;;;8.23;4.53;;;16.40;99.90;;;;;;5014031;28;20026;-72
2022/08/19 02:23:33;;;;;;;7.28;4.00;;;16.40;99.90;;;;;;5014145;28;20018;-74
2022/08/19 02:25:59;;;;;;;5.60;4.22;;;16.40;99.90;;;;;;4996528;28;20465;-72
2022/08/19 02:28:24;;;;;;;6.45;4.28;;;16.40;99.90;;;;;;5014031;28;20064;-73
2022/08/19 02:30:50;;;;;;;6.93;4.18;;;16.40;99.90;;;;;;5013940;28;20104;-73
2022/08/19 02:33:16;;;;;;;6.68;4.43;;;16.40;99.90;;;;;;5014004;28;20037;-73
2022/08/19 02:35:44;;;;;;;6.63;4.47;;;16.40;99.90;;;;;;5013866;28;20042;-73
2022/08/19 02:38:27;;;;;;;6.38;4.03;;;16.50;99.90;;;;;;5014208;28;20030;-74
2022/08/19 02:41:01;;;;;;;6.15;3.80;;;16.50;99.90;;;;;;5013746;28;20026;-76
2022/08/19 02:43:29;;;;;;;6.22;3.65;;;16.50;99.90;;;;;;4996316;28;20048;-76
2022/08/19 02:45:55;;;;;;;5.95;3.40;;;16.60;99.90;;;;;;5013783;28;20109;-76
2022/08/19 02:48:23;;;;;;;6.00;3.83;;;16.60;99.90;;;;;;5014359;28;20050;-76
2022/08/19 02:51:00;;;;;;;6.38;4.07;;;16.60;99.90;;;;;;5014191;28;20084;-76
2022/08/19 02:53:28;;;;;;;4.18;3.03;;;16.60;99.90;;;;;;5014089;28;20068;-76
2022/08/19 02:55:53;;;;;;;5.40;3.00;;;16.50;99.90;;;;;;5013946;28;20033;-74
2022/08/19 02:58:21;;;;;;;4.72;3.00;;;16.50;99.90;;;;;;5013681;28;20034;-73
2022/08/19 03:00:51;;;;;;;6.00;3.30;;;16.50;99.90;;;;;;5013549;28;20033;-74
2022/08/19 03:03:18;;;;;;;5.35;3.65;;;16.50;99.90;;;;;;5013804;28;20065;-73
2022/08/19 03:05:44;;;;;;;6.13;3.40;;;16.50;99.90;;;;;;5013603;28;20474;-73
2022/08/19 03:08:12;;;;;;;8.95;3.42;;;16.50;99.90;;;;;;4996004;28;20038;-73
2022/08/19 03:10:43;;;;;;;5.30;3.90;;;16.50;99.90;;;;;;4995967;28;20436;-74
2022/08/19 03:13:14;;;;;;;4.75;3.38;;;16.50;99.90;;;;;;5013549;28;20430;-73
2022/08/19 03:15:42;;;;;;;4.15;3.15;;;16.50;99.90;;;;;;5013839;28;20030;-73
2022/08/19 03:18:08;;;;;;;5.50;3.38;;;16.50;99.90;;;;;;5013462;28;20077;-73
2022/08/19 03:20:39;;;;;;;6.03;3.42;;;16.50;99.90;;;;;;5013263;28;20030;-73
2022/08/19 03:23:04;;;;;;;5.53;4.00;;;16.50;99.90;;;;;;5013468;28;20064;-73
2022/08/19 03:25:30;;;;;;;5.47;4.10;;;16.50;99.90;;;;;;5013418;28;20049;-73
2022/08/19 03:27:56;;;;;;;5.13;3.17;;;16.50;99.90;;;;;;5013659;28;20076;-73
2022/08/19 03:30:21;;;;;;;4.50;3.30;;;16.50;99.90;;;;;;5013376;28;20521;-74
2022/08/19 03:32:47;;;;;;;5.18;4.10;;;16.60;99.90;;;;;;5013306;28;20038;-75
2022/08/19 03:35:13;;;;;;;7.82;4.30;;;16.60;99.90;;;;;;5013402;28;20120;-75
2022/08/19 03:37:38;;;;;;;8.07;4.70;;;16.60;99.90;;;;;;5013297;28;20038;-75
2022/08/19 03:40:04;;;;;;;6.60;4.05;;;16.50;99.90;;;;;;5013449;28;20025;-76
2022/08/19 03:42:30;;;;;;;7.57;4.05;;;16.50;99.90;;;;;;4979501;28;20485;-76
2022/08/19 03:44:56;;;;;;;6.38;4.50;;;16.50;99.90;;;;;;5013269;28;20113;-75
2022/08/19 03:47:21;;;;;;;8.25;4.47;;;16.50;99.90;;;;;;5013274;28;20034;-76
2022/08/19 03:49:47;;;;;;;7.38;4.10;;;16.50;99.90;;;;;;5013195;28;20041;-76
2022/08/19 03:52:13;;;;;;;6.88;4.75;;;16.40;99.90;;;;;;4995684;28;20037;-76
2022/08/19 03:54:39;;;;;;;7.45;4.75;;;16.40;99.90;;;;;;5013445;28;20359;-75
2022/08/19 03:57:06;;;;;;;11.50;5.30;;;16.40;99.90;;;;;;5013470;28;20045;-75
2022/08/19 03:59:34;;;;;;;9.80;4.80;;;16.30;99.90;;;;;;5013099;28;20034;-73
2022/08/19 04:02:02;;;;;;;5.63;4.25;;;16.30;99.90;;;;;;5012864;28;20034;-74
2022/08/19 04:04:28;;;;;;;8.15;4.20;;;16.30;99.90;;;;;;5012996;28;20030;-74
2022/08/19 04:06:55;;;;;;;6.78;4.18;;;16.20;99.90;;;;;;5013070;28;20053;-74
2022/08/19 04:09:21;;;;;;;8.18;4.43;;;16.20;99.90;;;;;;5013275;28;20026;-74
2022/08/19 04:11:53;;;;;;;8.25;4.70;;;16.20;99.90;;;;;;5012058;28;20026;-74
2022/08/19 04:14:23;;;;;;;7.38;4.63;;;16.20;99.90;;;;;;4997137;28;20030;-74
2022/08/19 04:16:50;;;;;;;7.40;4.43;;;16.30;99.90;;;;;;4998332;28;20026;-74
2022/08/19 04:19:17;;;;;;;6.55;4.20;;;16.30;99.90;;;;;;5015865;28;20029;-74
2022/08/19 04:21:44;;;;;;;5.88;4.03;;;16.30;99.90;;;;;;4998415;28;20062;-74
2022/08/19 04:24:11;;;;;;;5.05;3.72;;;16.30;99.90;;;;;;5015475;28;20548;-74
2022/08/19 04:26:38;;;;;;;5.70;4.18;;;16.30;99.90;;;;;;5016108;28;20092;-74
2022/08/19 04:29:10;;;;;;;5.95;3.50;;;16.30;99.90;;;;;;5016053;28;20025;-74
2022/08/19 04:31:35;;;;;;;8.00;3.83;;;16.20;99.90;;;;;;5015943;28;20033;-72
2022/08/19 04:34:05;;;;;;;7.10;4.45;;;16.20;99.90;;;;;;5014654;28;20029;-72
2022/08/19 04:36:33;;;;;;;6.38;4.13;;;16.20;99.90;;;;;;5015992;28;20547;-72
2022/08/19 04:39:03;;;;;;;6.22;4.50;;;16.10;99.90;;;;;;5015859;28;20030;-72
2022/08/19 04:44:13;;;;;;;6.75;4.07;;;16.20;99.90;;;;;;5015813;28;20398;-74
2022/08/19 04:46:40;;;;;;;6.28;4.38;;;16.20;99.90;;;;;;5015778;28;20025;-76
2022/08/19 04:49:07;;;;;;;5.18;3.55;;;16.30;99.90;;;;;;5015462;28;20022;-76
2022/08/19 04:51:34;;;;;;;10.13;3.80;;;16.30;99.90;;;;;;4997577;28;20041;-76
2022/08/19 04:54:01;;;;;;;6.38;3.88;;;16.40;99.90;;;;;;4996716;28;20030;-75
2022/08/19 04:56:27;;;;;;;7.82;4.10;;;16.40;99.90;;;;;;5015278;28;20061;-75
2022/08/19 04:58:55;;;;;;;5.97;3.50;;;16.40;99.90;;;;;;5014893;28;20058;-75
2022/08/19 05:01:31;;;;;;;5.00;3.70;;;16.40;99.90;;;;;;5014903;28;20030;-75
2022/08/19 05:03:57;;;;;;;5.35;3.50;;;16.50;99.90;;;;;;5014707;28;20033;-74
2022/08/19 05:06:25;;;;;;;4.60;3.35;;;16.50;99.90;;;;;;5015460;28;20018;-74
2022/08/19 05:08:51;;;;;;;7.47;3.88;;;16.50;99.90;;;;;;5015498;28;20032;-74
2022/08/19 05:11:21;;;;;;;5.25;3.63;;;16.60;99.90;;;;;;5015320;28;20065;-71
2022/08/19 05:13:51;;;;;;;6.82;3.90;;;16.60;99.90;;;;;;5015385;28;20026;-71
2022/08/19 05:16:19;;;;;;;5.53;4.20;;;16.60;99.90;;;;;;5015675;28;20048;-74
2022/08/19 05:24:14;;;;;;;6.38;4.10;;;16.60;99.90;;;;;;5015300;28;20037;-74
2022/08/19 05:26:46;;;;;;;4.82;3.60;;;16.60;99.90;;;;;;5014205;28;20105;-74
2022/08/19 05:29:13;;;;;;;4.50;3.30;;;16.50;99.90;;;;;;5015407;28;20014;-74
2022/08/19 05:31:38;;;;;;;5.47;3.90;;;16.50;99.90;;;;;;5015032;28;20030;-74
2022/08/19 05:34:04;;;;;;;6.13;3.72;;;16.50;99.90;;;;;;5014913;28;20492;-74
2022/08/19 05:36:39;;;;;;;6.18;4.15;;;16.50;99.90;;;;;;5015240;28;20038;-74
2022/08/19 05:39:06;;;;;;;5.30;4.20;;;16.60;99.90;;;;;;5015546;28;20037;-73
2022/08/19 05:41:32;;;;;;;8.05;4.10;;;16.60;99.90;;;;;;4997231;28;20405;-73
2022/08/19 05:44:01;;;;;;;7.25;4.03;;;16.60;99.90;;;;;;5014888;28;20076;-73
2022/08/19 05:46:27;;;;;;;6.00;4.20;;;16.60;99.90;;;;;;5015090;28;20021;-73
2022/08/19 05:48:55;;;;;;;6.20;4.28;;;16.60;99.90;;;;;;5014724;28;20497;-73
2022/08/19 05:51:22;;;;;;;7.45;3.78;;;16.60;99.90;;;;;;5014628;28;20169;-74
2022/08/19 05:53:48;;;;;;;5.47;3.90;;;16.60;99.90;;;;;;5014683;28;20397;-73
2022/08/19 05:56:15;;;;;;;5.97;4.15;;;16.60;99.90;;;;;;5014619;28;20113;-73
2022/08/19 05:58:42;;;;;;;6.95;3.50;;;16.60;99.90;;;;;;5014856;28;20044;-72
2022/08/19 06:01:14;;;;;;;6.93;5.07;;;16.70;99.90;;;;;;5014575;28;20034;-70
2022/08/19 06:03:40;;;;;;;6.85;5.20;;;16.70;99.90;;;;;;5014689;28;20029;-70
2022/08/19 06:06:11;;;;;;;8.85;5.30;;;16.70;99.90;;;;;;5014441;28;20449;-70
2022/08/19 06:08:38;;;;;;;8.68;5.18;;;16.70;99.90;;;;;;5014403;28;20046;-72
2022/08/19 06:11:15;;;;;;;11.07;5.20;;;16.70;99.90;;;;;;5014265;28;20037;-72
2022/08/19 06:13:40;;;;;;;10.68;5.35;;;16.70;99.90;;;;;;5014377;28;20030;-72
2022/08/19 06:16:06;;;;;;;10.27;5.47;;;16.80;99.90;;;;;;5014576;28;20029;-72
2022/08/19 06:18:33;;;;;;;8.85;5.93;;;16.80;99.90;;;;;;5014545;28;20034;-72
2022/08/19 06:20:59;;;;;;;10.18;6.35;;;16.80;99.90;;;;;;5014082;28;20026;-73
2022/08/19 06:23:25;;;;;;;7.93;5.80;;;16.80;99.90;;;;;;4996576;28;20041;-71
2022/08/19 06:25:51;;;;;;;8.60;6.22;;;16.80;99.90;;;;;;5014134;28;20084;-72
2022/08/19 06:28:16;;;;;;;11.38;7.03;;;16.90;99.90;;;;;;5014466;28;20026;-75
2022/08/19 06:30:42;;;;;;;8.60;6.22;;;16.90;99.90;;;;;;5013959;28;20113;-75
2022/08/19 06:33:08;;;;;;;14.07;8.20;;;16.90;99.90;;;;;;5013999;28;20037;-75
2022/08/19 06:35:39;;;;;;;8.25;6.70;;;16.90;99.90;;;;;;5013949;28;20129;-75
2022/08/19 06:38:05;;;;;;;12.65;7.78;;;16.90;99.90;;;;;;4996001;28;20492;-74
2022/08/19 06:40:31;;;;;;;11.23;7.85;;;16.90;99.90;;;;;;5013735;28;20112;-74
2022/08/19 06:42:58;;;;;;;8.77;6.68;;;16.80;99.90;;;;;;4980051;28;20032;-75
2022/08/19 06:45:25;;;;;;;11.90;7.13;;;16.80;99.90;;;;;;5014123;28;20026;-73
2022/08/19 06:47:55;;;;;;;14.13;6.82;;;16.80;99.90;;;;;;5013873;28;20493;-77
2022/08/19 06:50:22;;;;;;;8.83;6.20;;;16.90;99.90;;;;;;5013811;28;20112;-75
2022/08/19 06:52:47;;;;;;;9.43;5.78;;;16.90;99.90;;;;;;4996414;28;20112;-76
2022/08/19 06:55:13;;;;;;;10.40;6.60;;;17.00;99.90;;;;;;4996195;28;20113;-75
2022/08/19 06:57:38;;;;;;;7.80;5.43;;;17.10;99.90;;;;;;5013712;28;20069;-75
2022/08/19 07:00:10;;;;;;;8.23;6.45;;;17.10;99.90;;;;;;5013609;28;20075;-75
2022/08/19 07:02:37;;;;;;;;;;;17.10;99.90;;;;;;5014569;28;20509;-75
2022/08/19 07:05:03;;;;;;;9.38;6.32;;;17.20;99.90;;;;;;5013589;28;19921;-75
2022/08/19 07:07:29;;;;;;;14.07;6.82;;;17.20;99.90;;;;;;5013650;28;20065;-75
2022/08/19 07:09:54;;;;;;;9.52;6.85;;;17.20;99.90;;;;;;5013845;28;20513;-73
2022/08/19 07:12:20;;;;;;;11.20;6.63;;;17.30;99.90;;;;;;4979654;28;20429;-72
2022/08/19 07:14:46;;;;;;;9.05;6.93;;;17.40;99.90;;;;;;5013515;28;20026;-73
2022/08/19 07:17:12;;;;;;;10.98;7.88;;;17.40;99.90;;;;;;4996119;28;20398;-73
2022/08/19 07:19:39;;;;;;;9.75;7.32;;;17.50;99.90;;;;;;4995921;28;20026;-73
2022/08/19 07:22:07;;;;;;;8.73;7.00;;;17.60;99.90;;;;;;5013619;28;20112;-73
2022/08/19 07:24:33;;;;;;;9.00;6.57;;;17.80;99.90;;;;;;5013486;28;20076;-72
2022/08/19 07:27:02;;;;;;;9.05;6.82;;;17.80;99.90;;;;;;5014007;28;20061;-72
2022/08/19 07:29:29;;;;;;;7.90;5.70;;;17.90;99.90;;;;;;5013472;28;20041;-73
2022/08/19 07:31:56;;;;;;;6.82;5.38;;;18.00;99.90;;;;;;5013319;28;20072;-72
2022/08/19 07:34:23;;;;;;;9.50;6.80;;;18.10;99.90;;;;;;5013255;28;20049;-73
2022/08/19 07:36:50;;;;;;;7.78;6.25;;;18.10;99.90;;;;;;5013625;28;20030;-73
2022/08/19 07:39:24;;;;;;;10.52;6.38;;;18.30;99.90;;;;;;5013571;28;20030;-72
2022/08/19 07:41:50;;;;;;;11.57;7.32;;;18.40;99.90;;;;;;5012249;28;20104;-74
2022/08/19 07:44:17;;;;;;;11.65;7.35;;;18.60;99.90;;;;;;4993927;28;20064;-73
2022/08/19 07:46:45;;;;;;;11.55;8.15;;;18.70;99.90;;;;;;4994173;28;20034;-71
2022/08/19 07:49:17;;;;;;;7.78;6.53;;;18.90;99.90;;;;;;4995729;28;20018;-74
2022/08/19 07:51:43;;;;;;;11.60;7.72;;;18.90;99.90;;;;;;4979837;28;20065;-73
2022/08/19 07:54:09;;;;;;;10.07;6.93;;;19.00;99.90;;;;;;4997339;28;20033;-74
2022/08/19 07:56:34;;;;;;;10.80;6.70;;;19.10;99.90;;;;;;4997525;28;20390;-74
2022/08/19 07:59:00;;;;;;;9.30;6.82;;;19.10;99.90;;;;;;4997498;28;20034;-74
2022/08/19 08:01:27;;;;;;;8.88;6.97;;;19.20;99.90;;;;;;4997027;28;20394;-74
2022/08/19 08:09:31;;;;;;;9.10;6.20;;;19.60;99.90;;;;;;4997618;28;20069;-74
2022/08/19 08:12:01;;;;;;;10.15;7.47;;;19.80;99.90;;;;;;4997108;28;20038;-74
2022/08/19 08:14:36;;;;;;;9.52;7.93;;;19.90;99.90;;;;;;4997201;28;20019;-74
2022/08/19 08:17:04;;;;;;;9.85;7.95;;;20.00;99.90;;;;;;4997225;28;20026;-74
2022/08/19 08:19:30;;;;;;;8.77;5.90;;;20.00;99.90;;;;;;4996879;28;20083;-74
2022/08/19 08:21:57;;;;;;;10.85;8.18;;;20.10;99.90;;;;;;4996897;28;20026;-74
2022/08/19 08:24:24;;;;;;;12.80;8.25;;;20.20;99.90;;;;;;4996769;28;20058;-75
2022/08/19 08:26:50;;;;;;;9.95;7.03;;;20.40;99.90;;;;;;4996756;28;20065;-75
2022/08/19 08:29:16;;;;;;;9.02;7.18;;;20.50;99.90;;;;;;4996718;28;20027;-74
2022/08/19 08:31:43;;;;;;;11.90;7.90;;;20.60;99.90;;;;;;4996741;28;20041;-75
2022/08/19 08:34:10;;;;;;;9.38;7.25;;;20.70;99.90;;;;;;4996922;28;20027;-74
2022/08/19 08:36:41;;;;;;;11.95;8.23;;;20.70;99.90;;;;;;4996550;28;20061;-75
2022/08/19 08:39:11;;;;;;;;;;;20.80;99.90;;;;;;4996965;28;20026;-75
2022/08/19 08:41:57;;;;;;;9.20;6.53;;;20.90;99.90;;;;;;4996468;28;20285;-74
2022/08/19 08:44:37;;;;;;;8.05;5.95;;;21.00;99.90;;;;;;4996719;28;20026;-75
2022/08/19 08:47:10;;;;;;;7.32;6.10;;;21.10;99.90;;;;;;4996394;28;20026;-74
2022/08/19 08:50:01;;;;;;;7.85;6.68;;;21.20;99.90;;;;;;4996377;28;20022;-75
2022/08/19 08:52:35;;;;;;;7.05;6.10;;;21.30;99.90;;;;;;4996514;28;20069;-75
2022/08/19 08:55:06;;;;;;;8.77;5.60;;;21.30;99.90;;;;;;4996279;28;20026;-75
2022/08/19 08:57:39;;;;;;;5.50;4.80;;;21.40;99.90;;;;;;5011301;28;20544;-74
2022/08/19 09:00:10;;;;;;;6.85;4.88;;;21.50;99.90;;;;;;4996318;28;20030;-75
2022/08/19 09:02:35;;;;;;;;;;;21.50;99.90;;;;;;4997856;28;20022;-74
2022/08/19 09:05:01;;;;;;;7.07;4.82;;;21.60;99.90;;;;;;5005182;28;19913;-75
2022/08/19 09:07:49;;;;;;;5.22;4.60;;;21.80;99.90;;;;;;4997899;28;20048;-76
2022/08/19 09:10:39;;;;;;;5.72;4.20;;;22.00;99.90;;;;;;5015574;28;20033;-74
2022/08/19 09:13:11;;;;;;;5.43;4.05;;;22.00;99.90;;;;;;5014165;28;20033;-74
2022/08/19 09:16:01;;;;;;;6.80;3.15;;;22.00;99.90;;;;;;5015402;28;20033;-74
2022/08/19 09:18:43;;;;;;;4.00;3.00;;;22.00;99.90;;;;;;5014886;28;20029;-73
2022/08/19 09:21:10;;;;;;;4.53;3.47;;;21.90;99.90;;;;;;5015135;28;20064;-75
2022/08/19 09:23:36;;;;;;;4.18;3.08;;;21.90;99.90;;;;;;4997705;28;20030;-74
2022/08/19 09:26:08;;;;;;;3.80;3.08;;;21.90;99.90;;;;;;5015324;28;20512;-74
2022/08/19 09:28:34;;;;;;;3.67;2.85;;;22.10;99.90;;;;;;5015703;28;20478;-75
2022/08/19 09:31:00;;;;;;;3.65;2.92;;;22.20;99.90;;;;;;5015003;28;20108;-75
2022/08/19 09:33:26;;;;;;;3.40;2.72;;;22.30;99.90;;;;;;4996130;28;20025;-75
2022/08/19 09:36:09;;;;;;;3.25;2.72;;;22.50;99.90;;;;;;5014647;28;20387;-72
2022/08/19 09:38:36;;;;;;;3.78;2.75;;;22.60;99.90;;;;;;4978039;28;20030;-72
2022/08/19 09:41:07;;;;;;;4.78;2.97;;;22.70;99.90;;;;;;4995494;28;20030;-72
2022/08/19 09:43:36;;;;;;;4.45;2.33;;;22.80;99.90;;;;;;4996194;28;20498;-74
2022/08/19 09:46:06;;;;;;;3.30;2.50;;;22.90;99.90;;;;;;5010257;28;20034;-72
2022/08/19 09:48:32;;;;;;;3.58;2.53;;;22.90;99.90;;;;;;4995240;28;20022;-72
2022/08/19 09:51:08;;;;;;;5.95;2.88;;;23.10;99.90;;;;;;4995621;28;20031;-72
2022/08/19 09:53:37;;;;;;;4.50;2.90;;;23.20;99.90;;;;;;4999566;28;20026;-72
2022/08/19 09:56:05;;;;;;;3.20;2.13;;;23.20;99.90;;;;;;5010106;28;20037;-68
2022/08/19 09:58:31;;;;;;;3.95;2.70;;;23.20;99.90;;;;;;4998980;28;20021;-71
2022/08/19 10:00:59;;;;;;;3.30;2.20;;;23.30;99.90;;;;;;5013129;28;20030;-71
2022/08/19 10:03:26;;;;;;;3.33;2.40;;;23.30;99.90;;;;;;5014863;28;20378;-72
2022/08/19 10:05:52;;;;;;;5.28;2.80;;;23.40;99.90;;;;;;5014443;28;20120;-71
2022/08/19 10:08:25;;;;;;;3.50;2.65;;;23.40;99.30;;;;;;5014449;28;20474;-71
2022/08/19 10:10:51;;;;;;;4.43;2.45;;;23.50;99.20;;;;;;5013901;28;20545;-72
2022/08/19 10:13:22;;;;;;;3.45;2.50;;;23.70;99.80;;;;;;5014482;28;20467;-71
2022/08/19 10:15:50;;;;;;;4.85;2.50;;;23.80;99.50;;;;;;5014667;28;20022;-69
2022/08/19 10:18:17;;;;;;;4.15;2.40;;;23.90;98.60;;;;;;5014289;28;20394;-71
2022/08/19 10:20:45;;;;;;;5.28;2.40;;;24.10;98.00;;;;;;5014101;28;20429;-71
2022/08/19 10:23:11;;;;;;;3.05;2.45;;;24.10;98.40;;;;;;5014234;28;20394;-71
2022/08/19 10:25:37;;;;;;;4.82;3.00;;;24.10;98.10;;;;;;5014159;28;20026;-71
2022/08/19 10:28:04;;;;;;;4.88;3.00;;;24.00;98.00;;;;;;5014130;28;20026;-71
2022/08/19 10:30:29;;;;;;;4.35;2.50;;;23.90;96.80;;;;;;5013975;28;20026;-71
2022/08/19 10:32:55;;;;;;;4.13;2.60;;;23.90;96.70;;;;;;5013859;28;20033;-69
2022/08/19 10:35:21;;;;;;;3.47;2.50;;;24.10;97.40;;;;;;5013673;28;20038;-69
2022/08/19 10:37:46;;;;;;;3.55;2.35;;;24.20;97.10;;;;;;4996148;28;20124;-70
2022/08/19 10:40:12;;;;;;;3.22;2.25;;;24.40;97.20;;;;;;5013763;28;20501;-70
2022/08/19 10:42:38;;;;;;;4.10;2.40;;;24.50;95.90;;;;;;4996255;28;20026;-70
2022/08/19 10:45:05;;;;;;;4.60;2.75;;;24.50;95.50;;;;;;5013868;28;20385;-71
2022/08/19 10:47:32;;;;;;;5.70;2.00;;;24.60;95.90;;;;;;5014121;28;20084;-70
2022/08/19 10:52:46;;;;;;;4.78;2.70;;;24.90;94.00;;;;;;5014032;28;20040;-70
2022/08/19 10:58:22;;;;;;;3.65;2.33;;;25.10;94.20;;;;;;4941816;29;20042;-71
2022/08/19 11:00:55;;;;;;;2.75;2.00;;;25.30;94.40;;;;;;4948718;29;20066;-71
2022/08/19 11:03:22;;;;;;;2.75;2.08;;;25.50;93.00;;;;;;4987361;28;20034;-70
2022/08/19 11:06:00;;;;;;;5.22;2.03;;;25.60;92.30;;;;;;5013615;28;20038;-70
2022/08/19 11:08:27;;;;;;;3.70;2.00;;;25.80;93.20;;;;;;5013889;28;20022;-68
2022/08/19 11:10:58;;;;;;;2.70;1.83;;;25.90;90.40;;;;;;5013794;28;20018;-70
2022/08/19 11:13:24;;;;;;;3.15;1.90;;;26.00;89.10;;;;;;5013884;28;20045;-70
2022/08/19 11:16:13;;;;;;;3.08;1.58;;;26.00;91.10;;;;;;5013805;28;20054;-69
2022/08/19 11:18:43;;;;;;;3.08;1.60;;;26.00;89.00;;;;;;5013555;28;20432;-68
2022/08/19 11:21:24;;;;;;;2.88;1.98;;;26.00;90.20;;;;;;5013333;28;20018;-71
2022/08/19 11:23:52;;;;;;;3.08;1.80;;;26.10;88.60;;;;;;5016777;28;20036;-70
2022/08/19 11:26:19;;;;;;;2.53;2.05;;;26.10;88.60;;;;;;5017647;28;20053;-71
2022/08/19 11:28:45;;;;;;;2.58;1.73;;;26.20;87.20;;;;;;5017422;28;20028;-71
2022/08/19 11:31:18;;;;;;;4.70;2.15;;;26.20;87.80;;;;;;5017512;28;20397;-70
2022/08/19 11:33:44;;;;;;;3.67;1.90;;;26.30;87.80;;;;;;5017379;28;20030;-71
2022/08/19 11:36:09;;;;;;;2.78;1.98;;;26.40;88.30;;;;;;5017191;28;20041;-70
2022/08/19 11:38:36;;;;;;;4.20;2.25;;;26.50;87.20;;;;;;5017747;28;20018;-70
2022/08/19 11:41:05;;;;;;;4.07;2.08;;;26.60;87.00;;;;;;4999460;28;20077;-71
2022/08/19 11:43:31;;;;;;;2.22;1.60;;;26.70;85.80;;;;;;5017746;28;20068;-71
2022/08/19 11:45:57;;;;;;;4.20;2.13;;;26.80;86.20;;;;;;4999322;28;20038;-69
2022/08/19 11:48:24;;;;;;;2.70;1.70;;;26.90;86.40;;;;;;5017008;28;20022;-69
2022/08/19 11:50:52;;;;;;;3.35;1.85;;;27.10;86.00;;;;;;4999323;28;20029;-71
2022/08/19 11:53:19;;;;;;;2.33;1.67;;;27.20;85.50;;;;;;5017036;28;20425;-69
2022/08/19 11:55:50;;;;;;;3.97;2.35;;;27.20;84.10;;;;;;5017258;28;20385;-71
2022/08/19 11:58:17;;;;;;;3.72;1.80;;;27.10;83.10;;;;;;5016868;28;20425;-71
2022/08/19 12:00:44;;;;;;;2.90;2.03;;;27.00;84.50;;;;;;4999031;28;20604;-71
2022/08/19 12:03:11;;;;;;;2.55;1.80;;;27.10;86.40;;;;;;4997276;28;20025;-69
2022/08/19 12:05:39;;;;;;;2.70;1.70;;;27.10;83.20;;;;;;5015048;28;20038;-70
2022/08/19 12:08:05;;;;;;;3.45;1.90;;;26.90;83.00;;;;;;5016512;28;20488;-71
2022/08/19 12:10:32;;;;;;;3.40;1.80;;;26.70;83.60;;;;;;5016611;28;20053;-72
2022/08/19 12:12:57;;;;;;;3.30;1.85;;;26.50;82.60;;;;;;5014162;28;20037;-69
2022/08/19 12:15:23;;;;;;;2.83;1.85;;;26.30;84.10;;;;;;5016555;28;20030;-69
2022/08/19 12:17:49;;;;;;;5.15;1.95;;;26.00;84.50;;;;;;4998959;28;20022;-72
2022/08/19 12:20:16;;;;;;;3.78;2.20;;;25.80;84.90;;;;;;5016644;28;20486;-68
2022/08/19 12:22:43;;;;;;;4.38;2.25;;;25.50;86.80;;;;;;5016260;28;20106;-70
2022/08/19 12:25:12;;;;;;;3.38;1.88;;;25.50;86.50;;;;;;5016733;28;20033;-72
2022/08/19 12:27:38;;;;;;;2.70;2.15;;;25.40;88.90;;;;;;5016659;28;20524;-74
2022/08/19 12:30:06;;;;;;;2.67;1.92;;;25.30;87.60;;;;;;4998952;28;20025;-75
2022/08/19 12:32:32;;;;;;;3.25;2.05;;;25.30;87.80;;;;;;5016169;28;20038;-74
2022/08/19 12:34:57;;;;;;;4.28;1.75;;;25.20;88.20;;;;;;5015576;28;20037;-74
2022/08/19 12:37:23;;;;;;;2.45;1.70;;;25.10;85.90;;;;;;5016101;28;20030;-74
2022/08/19 12:39:49;;;;;;;3.60;1.92;;;25.00;87.40;;;;;;5016613;28;20061;-75
2022/08/19 12:42:15;;;;;;;2.85;1.85;;;24.90;87.50;;;;;;5015820;28;20104;-72
2022/08/19 12:44:42;;;;;;;2.97;1.92;;;24.80;87.00;;;;;;5015965;28;20033;-73
2022/08/19 12:47:10;;;;;;;3.63;2.33;;;24.70;87.40;;;;;;5016165;28;20029;-74
2022/08/19 12:49:38;;;;;;;3.67;1.98;;;24.50;88.30;;;;;;5015692;28;20022;-73
2022/08/19 12:52:08;;;;;;;3.45;1.85;;;24.40;89.30;;;;;;5015802;28;20577;-74
2022/08/19 12:54:37;;;;;;;2.05;1.70;;;24.20;90.00;;;;;;5016076;28;20076;-73
2022/08/19 12:57:07;;;;;;;6.03;2.22;;;24.10;90.30;;;;;;5015632;28;20037;-74
2022/08/19 12:59:37;;;;;;;2.92;2.05;;;23.90;90.40;;;;;;5015942;28;20041;-72
2022/08/19 13:02:07;;;;;;;2.65;1.92;;;23.80;91.00;;;;;;5016036;28;20058;-74
2022/08/19 13:04:40;;;;;;;2.63;2.00;;;23.70;91.50;;;;;;5015605;28;20041;-72
2022/08/19 13:07:08;;;;;;;2.53;1.92;;;23.70;91.20;;;;;;5015862;28;20109;-73
2022/08/19 13:09:34;;;;;;;3.50;2.20;;;23.60;92.20;;;;;;5015516;28;20046;-72
2022/08/19 13:12:03;;;;;;;2.40;1.90;;;23.50;92.20;;;;;;5015426;28;20061;-74
2022/08/19 13:14:30;;;;;;;3.45;2.13;;;23.50;92.10;;;;;;4998661;28;20026;-74